Time;durP1;ratioP1;P1;durP2;ratioP2;P2;SDS_P1;SDS_P2;PMS_P1;PMS_P2;Temp;Humidity;BMP_temperature;BMP_pressure;BME280_temperature;BME280_humidity;BME280_pressure;Samples;Min_cycle;Max_cycle;Signal;HPM_P1;HPM_P2
2023/08/16 00:00:30;;;;;;;8.80;2.40;;;;;;;;;;5032096;28;20036;-73
2023/08/16 00:02:57;;;;;;;10.07;2.80;;;;;;;;;;5033849;28;20025;-74
2023/08/16 00:05:24;;;;;;;10.23;2.30;;;;;;;;;;5034323;28;20017;-73
2023/08/16 00:07:49;;;;;;;8.98;2.72;;;;;;;;;;5034165;28;20140;-74
2023/08/16 00:10:16;;;;;;;10.93;2.65;;;;;;;;;;5034807;28;20026;-73
2023/08/16 00:12:42;;;;;;;10.40;2.92;;;;;;;;;;5034286;28;20105;-73
2023/08/16 00:15:08;;;;;;;9.82;2.78;;;;;;;;;;5034565;28;20480;-73
2023/08/16 00:17:34;;;;;;;10.02;2.35;;;;;;;;;;5034975;28;20096;-73
2023/08/16 00:20:00;;;;;;;9.75;2.30;;;;;;;;;;5033614;28;20025;-74
2023/08/16 00:22:26;;;;;;;9.23;2.08;;;;;;;;;;5034681;28;20025;-72
2023/08/16 00:24:52;;;;;;;10.18;2.35;;;;;;;;;;5034996;28;20105;-73
2023/08/16 00:27:18;;;;;;;10.00;2.42;;;;;;;;;;5033361;28;20430;-73
2023/08/16 00:29:44;;;;;;;11.48;2.38;;;;;;;;;;5034176;28;20021;-73
2023/08/16 00:32:11;;;;;;;13.10;2.78;;;;;;;;;;5034145;28;20096;-73
2023/08/16 00:34:37;;;;;;;10.23;2.88;;;;;;;;;;5034256;28;20045;-73
2023/08/16 00:37:03;;;;;;;12.82;2.85;;;;;;;;;;5034295;28;20445;-74
2023/08/16 00:39:29;;;;;;;9.32;2.95;;;;;;;;;;5034207;28;20037;-74
2023/08/16 00:41:55;;;;;;;12.07;2.60;;;;;;;;;;5033670;28;20132;-74
2023/08/16 00:44:21;;;;;;;17.23;2.85;;;;;;;;;;5033779;28;20097;-73
2023/08/16 00:46:47;;;;;;;6.25;2.38;;;;;;;;;;5033888;28;20452;-72
2023/08/16 00:49:13;;;;;;;9.43;2.53;;;;;;;;;;5032370;28;20128;-72
2023/08/16 00:51:39;;;;;;;13.38;2.78;;;;;;;;;;5033532;28;20399;-74
2023/08/16 00:54:06;;;;;;;7.35;2.50;;;;;;;;;;5033422;28;20029;-73
2023/08/16 00:56:32;;;;;;;8.20;2.65;;;;;;;;;;5033625;28;20029;-75
2023/08/16 00:58:58;;;;;;;6.97;2.72;;;;;;;;;;5033694;28;20357;-73
2023/08/16 01:01:24;;;;;;;11.05;3.28;;;;;;;;;;5033598;28;20362;-74
2023/08/16 01:03:50;;;;;;;9.88;2.65;;;;;;;;;;5033183;28;20510;-74
2023/08/16 01:06:16;;;;;;;11.63;2.67;;;;;;;;;;5033409;28;20053;-73
2023/08/16 01:08:42;;;;;;;6.80;2.80;;;;;;;;;;5033462;28;20029;-75
2023/08/16 01:11:41;;;;;;;5.07;2.70;;;;;;;;;;5033441;28;20021;-74
2023/08/16 01:14:16;;;;;;;8.30;2.38;;;;;;;;;;5031396;28;20111;-73
2023/08/16 01:16:43;;;;;;;12.90;3.42;;;;;;;;;;5031738;28;20033;-73
2023/08/16 01:19:14;;;;;;;9.00;2.75;;;;;;;;;;5033259;28;20388;-73
2023/08/16 01:21:47;;;;;;;10.77;2.58;;;;;;;;;;5032929;28;20036;-73
2023/08/16 01:24:24;;;;;;;16.38;2.92;;;;;;;;;;5033056;28;20430;-72
2023/08/16 01:26:52;;;;;;;8.00;2.53;;;;;;;;;;5033945;28;20022;-72
2023/08/16 01:29:20;;;;;;;8.70;2.50;;;;;;;;;;5032841;28;20017;-73
2023/08/16 01:31:46;;;;;;;7.65;2.58;;;;;;;;;;5032896;28;20116;-72
2023/08/16 01:34:12;;;;;;;9.63;2.40;;;;;;;;;;5032756;28;20109;-72
2023/08/16 01:36:38;;;;;;;11.18;2.67;;;;;;;;;;5034124;28;20061;-73
2023/08/16 01:39:04;;;;;;;9.95;3.10;;;;;;;;;;5033959;28;20030;-73
2023/08/16 01:41:36;;;;;;;18.70;3.70;;;;;;;;;;5033277;28;20028;-74
2023/08/16 01:44:02;;;;;;;9.60;2.88;;;;;;;;;;5032601;28;20029;-72
2023/08/16 01:46:29;;;;;;;12.70;3.00;;;;;;;;;;5032377;28;20022;-72
2023/08/16 01:48:56;;;;;;;9.27;2.53;;;;;;;;;;5032892;28;20471;-74
2023/08/16 01:51:22;;;;;;;10.65;2.90;;;;;;;;;;5032949;28;20033;-75
2023/08/16 01:53:54;;;;;;;9.27;2.42;;;;;;;;;;5032345;28;20140;-74
2023/08/16 01:56:20;;;;;;;12.95;2.60;;;;;;;;;;5032642;28;20063;-73
2023/08/16 01:58:47;;;;;;;14.50;2.78;;;;;;;;;;5033419;28;20105;-73
2023/08/16 02:01:13;;;;;;;9.52;2.30;;;;;;;;;;5033416;28;20030;-73
2023/08/16 02:03:39;;;;;;;9.00;2.60;;;;;;;;;;5032898;28;20365;-74
2023/08/16 02:06:05;;;;;;;13.43;2.95;;;;;;;;;;5033402;28;20099;-74
2023/08/16 02:08:31;;;;;;;12.32;2.60;;;;;;;;;;5032246;28;20022;-74
2023/08/16 02:10:57;;;;;;;6.97;2.63;;;;;;;;;;5032220;28;20099;-73
2023/08/16 02:13:23;;;;;;;9.30;3.08;;;;;;;;;;5031944;28;20119;-73
2023/08/16 02:15:49;;;;;;;8.57;3.05;;;;;;;;;;5032239;28;20075;-73
2023/08/16 02:18:15;;;;;;;13.82;2.63;;;;;;;;;;5031992;28;20071;-73
2023/08/16 02:20:41;;;;;;;11.48;2.85;;;;;;;;;;5031972;28;20033;-74
2023/08/16 02:23:08;;;;;;;14.85;2.90;;;;;;;;;;5031861;28;20025;-73
2023/08/16 02:25:34;;;;;;;10.30;3.75;;;;;;;;;;5032384;28;20026;-72
2023/08/16 02:28:00;;;;;;;11.55;3.80;;;;;;;;;;5033367;28;20071;-74
2023/08/16 02:30:27;;;;;;;8.15;3.00;;;;;;;;;;5033440;28;20410;-74
2023/08/16 02:32:54;;;;;;;11.10;2.97;;;;;;;;;;5035494;28;20054;-74
2023/08/16 02:35:20;;;;;;;10.20;2.78;;;;;;;;;;5031100;28;20028;-75
2023/08/16 02:37:46;;;;;;;13.50;3.67;;;;;;;;;;5030554;28;20100;-74
2023/08/16 02:40:12;;;;;;;12.98;3.30;;;;;;;;;;5036731;28;20079;-74
2023/08/16 02:42:38;;;;;;;6.95;2.83;;;;;;;;;;5036593;28;20104;-74
2023/08/16 02:45:05;;;;;;;14.23;3.28;;;;;;;;;;5033856;28;20510;-74
2023/08/16 02:47:31;;;;;;;11.38;2.95;;;;;;;;;;5036058;28;20032;-75
2023/08/16 02:49:57;;;;;;;7.22;3.13;;;;;;;;;;5041677;28;20081;-75
2023/08/16 02:52:23;;;;;;;11.38;3.15;;;;;;;;;;5047967;28;20033;-73
2023/08/16 02:54:49;;;;;;;12.15;3.83;;;;;;;;;;5060279;28;20018;-73
2023/08/16 02:57:16;;;;;;;14.02;3.95;;;;;;;;;;5058580;28;20014;-72
2023/08/16 02:59:46;;;;;;;13.32;4.07;;;;;;;;;;5035826;28;20033;-72
2023/08/16 03:02:12;;;;;;;14.48;4.75;;;;;;;;;;5035381;28;20049;-72
2023/08/16 03:04:41;;;;;;;14.50;4.32;;;;;;;;;;5037775;28;20029;-73
2023/08/16 03:07:07;;;;;;;10.98;4.07;;;;;;;;;;5035600;28;20483;-73
2023/08/16 03:09:33;;;;;;;14.23;4.47;;;;;;;;;;5019435;28;20017;-71
2023/08/16 03:11:59;;;;;;;13.55;4.45;;;;;;;;;;5035694;28;20107;-72
2023/08/16 03:14:25;;;;;;;17.85;4.57;;;;;;;;;;5036227;28;20068;-73
2023/08/16 03:16:51;;;;;;;9.13;3.53;;;;;;;;;;5036584;28;20049;-73
2023/08/16 03:19:17;;;;;;;13.43;4.13;;;;;;;;;;5053334;28;20025;-73
2023/08/16 03:21:43;;;;;;;14.18;4.32;;;;;;;;;;5039833;28;20030;-73
2023/08/16 03:24:09;;;;;;;18.55;4.75;;;;;;;;;;5035041;28;20101;-72
2023/08/16 03:26:36;;;;;;;23.25;4.63;;;;;;;;;;5037942;28;20033;-74
2023/08/16 03:29:03;;;;;;;12.05;3.92;;;;;;;;;;5035144;28;20021;-74
2023/08/16 03:31:29;;;;;;;14.40;4.05;;;;;;;;;;5035019;28;20051;-74
2023/08/16 03:33:55;;;;;;;10.70;4.05;;;;;;;;;;5034621;28;20033;-76
2023/08/16 03:36:20;;;;;;;21.02;5.22;;;;;;;;;;5034911;28;20033;-73
2023/08/16 03:38:46;;;;;;;13.38;5.18;;;;;;;;;;5035241;28;20080;-73
2023/08/16 03:41:12;;;;;;;13.15;4.43;;;;;;;;;;5035613;28;20033;-74
2023/08/16 03:43:38;;;;;;;18.38;4.63;;;;;;;;;;5035022;28;20380;-75
2023/08/16 03:46:05;;;;;;;14.30;4.35;;;;;;;;;;5038542;28;20033;-74
2023/08/16 03:48:31;;;;;;;12.50;4.50;;;;;;;;;;5043868;28;20053;-73
2023/08/16 03:50:57;;;;;;;15.27;4.93;;;;;;;;;;5038631;28;20025;-73
2023/08/16 03:53:23;;;;;;;20.48;4.47;;;;;;;;;;5035066;28;20025;-74
2023/08/16 03:55:55;;;;;;;19.08;6.18;;;;;;;;;;5036773;28;20029;-73
2023/08/16 03:58:21;;;;;;;17.30;5.32;;;;;;;;;;5036275;28;20057;-73
2023/08/16 04:00:53;;;;;;;15.82;5.28;;;;;;;;;;5035733;28;20444;-73
2023/08/16 04:03:19;;;;;;;18.00;5.57;;;;;;;;;;5033298;28;20028;-74
2023/08/16 04:05:45;;;;;;;13.98;5.82;;;;;;;;;;5035400;28;20087;-74
2023/08/16 04:08:11;;;;;;;18.63;7.95;;;;;;;;;;5035737;28;20041;-74
2023/08/16 04:10:37;;;;;;;17.30;6.93;;;;;;;;;;5036093;28;20102;-73
2023/08/16 04:13:04;;;;;;;18.85;5.88;;;;;;;;;;5034134;28;20033;-74
2023/08/16 04:15:30;;;;;;;14.05;5.55;;;;;;;;;;5034533;28;20372;-73
2023/08/16 04:17:56;;;;;;;18.00;5.70;;;;;;;;;;5036193;28;20109;-74
2023/08/16 04:20:22;;;;;;;15.65;6.68;;;;;;;;;;5034752;28;20491;-74
2023/08/16 04:22:48;;;;;;;21.60;6.95;;;;;;;;;;5035369;28;20049;-72
2023/08/16 04:25:15;;;;;;;18.58;6.68;;;;;;;;;;5042182;28;20013;-73
2023/08/16 04:27:41;;;;;;;12.82;5.90;;;;;;;;;;5045450;28;20025;-74
2023/08/16 04:30:08;;;;;;;11.27;5.30;;;;;;;;;;5035688;28;20056;-74
2023/08/16 04:32:34;;;;;;;14.45;5.55;;;;;;;;;;5033000;28;20036;-76
2023/08/16 04:35:00;;;;;;;21.23;9.23;;;;;;;;;;5033648;28;20116;-76
2023/08/16 04:37:26;;;;;;;18.67;6.28;;;;;;;;;;5033627;28;20477;-77
2023/08/16 04:39:52;;;;;;;11.18;4.97;;;;;;;;;;5032175;28;20030;-75
2023/08/16 04:42:19;;;;;;;15.05;5.70;;;;;;;;;;5033448;28;20104;-77
2023/08/16 04:44:44;;;;;;;15.85;5.95;;;;;;;;;;5033503;28;20021;-76
2023/08/16 04:47:10;;;;;;;16.00;5.65;;;;;;;;;;5031964;28;20561;-74
2023/08/16 04:49:37;;;;;;;18.58;6.53;;;;;;;;;;5033430;28;20025;-76
2023/08/16 04:52:03;;;;;;;13.82;5.85;;;;;;;;;;5037927;28;20029;-76
2023/08/16 04:54:29;;;;;;;19.40;6.50;;;;;;;;;;5032468;28;20071;-72
2023/08/16 04:56:55;;;;;;;12.65;6.28;;;;;;;;;;5034989;28;20025;-72
2023/08/16 04:59:21;;;;;;;23.50;7.25;;;;;;;;;;5035999;28;20423;-71
2023/08/16 05:01:47;;;;;;;17.58;7.40;;;;;;;;;;5036751;28;20030;-72
2023/08/16 05:04:13;;;;;;;19.75;6.93;;;;;;;;;;5045632;28;20040;-72
2023/08/16 05:06:39;;;;;;;15.90;6.50;;;;;;;;;;5056124;28;20040;-73
2023/08/16 05:09:05;;;;;;;17.90;7.28;;;;;;;;;;5054862;28;20033;-73
2023/08/16 05:11:31;;;;;;;17.38;6.72;;;;;;;;;;5050325;28;20029;-72
2023/08/16 05:13:58;;;;;;;16.38;6.97;;;;;;;;;;5032659;28;20152;-71
2023/08/16 05:16:24;;;;;;;16.00;7.18;;;;;;;;;;5032938;28;20109;-74
2023/08/16 05:18:52;;;;;;;15.82;7.53;;;;;;;;;;5030297;28;20032;-75
2023/08/16 05:21:18;;;;;;;16.23;8.23;;;;;;;;;;5033638;28;20049;-74
2023/08/16 05:23:44;;;;;;;21.73;7.70;;;;;;;;;;5032402;28;20057;-74
2023/08/16 05:26:10;;;;;;;15.25;7.32;;;;;;;;;;5031203;28;20025;-74
2023/08/16 05:28:37;;;;;;;18.70;7.88;;;;;;;;;;5033075;28;20084;-76
2023/08/16 05:31:12;;;;;;;18.55;7.10;;;;;;;;;;5033340;28;20430;-74
2023/08/16 05:33:38;;;;;;;25.98;7.78;;;;;;;;;;5030741;28;20534;-77
2023/08/16 05:36:05;;;;;;;23.35;9.43;;;;;;;;;;5032896;28;20075;-74
2023/08/16 05:38:31;;;;;;;20.73;7.97;;;;;;;;;;5032616;28;20108;-75
2023/08/16 05:40:57;;;;;;;21.98;8.77;;;;;;;;;;5032732;28;20037;-76
2023/08/16 05:43:23;;;;;;;21.63;8.07;;;;;;;;;;5030171;28;20116;-74
2023/08/16 05:45:49;;;;;;;18.52;7.97;;;;;;;;;;5032613;28;20391;-74
2023/08/16 05:48:15;;;;;;;19.33;8.10;;;;;;;;;;5032674;28;20100;-73
2023/08/16 05:50:41;;;;;;;19.55;8.27;;;;;;;;;;5031877;28;20101;-75
2023/08/16 05:53:07;;;;;;;17.73;7.43;;;;;;;;;;5032611;28;20043;-75
2023/08/16 05:55:34;;;;;;;18.05;7.70;;;;;;;;;;5033493;28;20029;-77
2023/08/16 05:58:00;;;;;;;24.27;7.40;;;;;;;;;;5033475;28;20025;-77
2023/08/16 06:00:26;;;;;;;25.80;8.07;;;;;;;;;;5032583;28;20395;-75
2023/08/16 06:02:52;;;;;;;21.65;6.95;;;;;;;;;;5033266;28;20104;-77
2023/08/16 06:05:19;;;;;;;22.65;7.40;;;;;;;;;;5033276;28;20637;-76
2023/08/16 06:07:45;;;;;;;22.73;7.97;;;;;;;;;;5032683;28;20088;-76
2023/08/16 06:10:11;;;;;;;22.92;7.50;;;;;;;;;;5033618;28;20078;-76
2023/08/16 06:12:37;;;;;;;17.65;7.07;;;;;;;;;;5035006;28;20025;-76
2023/08/16 06:15:04;;;;;;;25.45;7.30;;;;;;;;;;5032891;28;20044;-75
2023/08/16 06:17:30;;;;;;;29.23;7.65;;;;;;;;;;5034867;28;20025;-78
2023/08/16 06:19:56;;;;;;;15.52;5.90;;;;;;;;;;5035526;28;20056;-76
2023/08/16 06:22:22;;;;;;;17.92;6.68;;;;;;;;;;5032462;28;20040;-74
2023/08/16 06:24:48;;;;;;;20.10;6.63;;;;;;;;;;5032292;28;20021;-76
2023/08/16 06:27:14;;;;;;;18.42;6.78;;;;;;;;;;5031922;28;20386;-75
2023/08/16 06:29:40;;;;;;;23.80;6.68;;;;;;;;;;5032483;28;20022;-75
2023/08/16 06:32:07;;;;;;;17.13;6.15;;;;;;;;;;5034417;28;20528;-77
2023/08/16 06:34:33;;;;;;;19.80;7.00;;;;;;;;;;5032076;28;20040;-73
2023/08/16 06:36:59;;;;;;;21.10;7.18;;;;;;;;;;5032725;28;20057;-76
2023/08/16 06:39:26;;;;;;;25.38;6.95;;;;;;;;;;5032512;28;20029;-75
2023/08/16 06:41:51;;;;;;;19.23;5.60;;;;;;;;;;5031912;28;20473;-77
2023/08/16 06:44:18;;;;;;;18.40;7.35;;;;;;;;;;5032837;28;20580;-71
2023/08/16 06:46:44;;;;;;;25.08;8.38;;;;;;;;;;5035024;28;20055;-73
2023/08/16 06:49:10;;;;;;;17.15;5.10;;;;;;;;;;5039329;28;20025;-74
2023/08/16 06:51:35;;;;;;;12.15;4.30;;;;;;;;;;5043828;28;20100;-72
2023/08/16 06:54:01;;;;;;;12.05;4.20;;;;;;;;;;5044999;28;20021;-73
2023/08/16 06:56:29;;;;;;;20.40;4.55;;;;;;;;;;5047840;28;20030;-72
2023/08/16 06:58:55;;;;;;;14.80;4.88;;;;;;;;;;5033780;28;20104;-71
2023/08/16 07:01:21;;;;;;;23.92;6.22;;;;;;;;;;5031480;28;20535;-73
2023/08/16 07:03:48;;;;;;;22.92;7.65;;;;;;;;;;5031209;28;20083;-73
2023/08/16 07:06:14;;;;;;;20.98;6.15;;;;;;;;;;5031351;28;20072;-72
2023/08/16 07:08:40;;;;;;;16.80;5.40;;;;;;;;;;5031469;28;20022;-74
2023/08/16 07:11:07;;;;;;;35.13;12.82;;;;;;;;;;5031526;28;20472;-75
2023/08/16 07:13:33;;;;;;;37.72;12.25;;;;;;;;;;5031233;28;20041;-73
2023/08/16 07:15:59;;;;;;;24.85;7.75;;;;;;;;;;5032465;28;20029;-72
2023/08/16 07:18:25;;;;;;;24.52;6.20;;;;;;;;;;5031511;28;20441;-72
2023/08/16 07:20:51;;;;;;;15.75;2.95;;;;;;;;;;5031388;28;20030;-73
2023/08/16 07:23:17;;;;;;;29.80;10.93;;;;;;;;;;5030872;28;20033;-72
2023/08/16 07:25:43;;;;;;;28.05;7.60;;;;;;;;;;5031462;28;20025;-72
2023/08/16 07:28:09;;;;;;;39.13;12.63;;;;;;;;;;5031090;28;20121;-73
2023/08/16 07:30:38;;;;;;;22.70;6.57;;;;;;;;;;5031101;28;20017;-74
2023/08/16 07:33:04;;;;;;;38.50;14.52;;;;;;;;;;5030927;28;20475;-74
2023/08/16 07:35:31;;;;;;;14.80;3.15;;;;;;;;;;5031080;28;20383;-71
2023/08/16 07:37:57;;;;;;;13.65;3.10;;;;;;;;;;5033564;28;20028;-72
2023/08/16 07:40:23;;;;;;;27.15;8.40;;;;;;;;;;5034583;28;20481;-72
2023/08/16 07:42:49;;;;;;;23.38;7.35;;;;;;;;;;5034737;28;20105;-74
2023/08/16 07:45:15;;;;;;;24.35;4.85;;;;;;;;;;5034755;28;20029;-73
2023/08/16 07:47:41;;;;;;;11.63;2.67;;;;;;;;;;5034491;28;20021;-73
2023/08/16 07:50:07;;;;;;;16.70;3.30;;;;;;;;;;5034512;28;20052;-73
2023/08/16 07:52:33;;;;;;;9.98;2.20;;;;;;;;;;5034046;28;20030;-74
2023/08/16 07:54:59;;;;;;;11.15;2.50;;;;;;;;;;5034496;28;20372;-73
2023/08/16 07:57:25;;;;;;;16.17;2.50;;;;;;;;;;5033301;28;20115;-73
2023/08/16 07:59:51;;;;;;;12.02;2.22;;;;;;;;;;5034309;28;20053;-73
2023/08/16 08:02:17;;;;;;;10.30;2.08;;;;;;;;;;5041226;28;20121;-73
2023/08/16 08:04:44;;;;;;;11.65;2.38;;;;;;;;;;5053785;28;20029;-73
2023/08/16 08:07:11;;;;;;;10.63;2.05;;;;;;;;;;5053574;28;20105;-74
2023/08/16 08:09:37;;;;;;;12.95;2.63;;;;;;;;;;5054108;28;20111;-75
2023/08/16 08:12:03;;;;;;;13.15;2.55;;;;;;;;;;5053212;28;20064;-74
2023/08/16 08:14:29;;;;;;;13.27;2.20;;;;;;;;;;5054075;28;20460;-71
2023/08/16 08:16:56;;;;;;;8.88;2.10;;;;;;;;;;5053756;28;20056;-72
2023/08/16 08:19:22;;;;;;;13.10;1.90;;;;;;;;;;5053986;28;20025;-73
2023/08/16 08:21:48;;;;;;;11.65;2.22;;;;;;;;;;5053044;28;20040;-71
2023/08/16 08:24:15;;;;;;;9.00;1.83;;;;;;;;;;5053916;28;20463;-75
2023/08/16 08:26:41;;;;;;;9.98;1.90;;;;;;;;;;5053366;28;20100;-74
2023/08/16 08:29:07;;;;;;;10.32;2.33;;;;;;;;;;5054109;28;20489;-73
2023/08/16 08:31:33;;;;;;;9.18;2.00;;;;;;;;;;5053240;28;20029;-73
2023/08/16 08:33:59;;;;;;;13.90;2.08;;;;;;;;;;5052759;28;20032;-73
2023/08/16 08:36:25;;;;;;;11.30;1.92;;;;;;;;;;5053147;28;20028;-72
2023/08/16 08:38:51;;;;;;;17.70;2.47;;;;;;;;;;5052874;28;20498;-73
2023/08/16 08:41:21;;;;;;;7.90;1.60;;;;;;;;;;5053561;28;20033;-74
2023/08/16 08:43:47;;;;;;;8.18;1.92;;;;;;;;;;5052500;28;20025;-75
2023/08/16 08:46:13;;;;;;;8.35;1.75;;;;;;;;;;5053485;28;20036;-75
2023/08/16 08:48:40;;;;;;;12.55;2.00;;;;;;;;;;5052420;28;20052;-74
2023/08/16 08:51:06;;;;;;;6.78;2.42;;;;;;;;;;5053983;28;20032;-72
2023/08/16 08:53:32;;;;;;;6.28;1.60;;;;;;;;;;5053050;28;20490;-73
2023/08/16 08:56:03;;;;;;;10.63;1.77;;;;;;;;;;5053666;28;20048;-72
2023/08/16 08:58:30;;;;;;;10.35;1.90;;;;;;;;;;5053444;28;20144;-72
2023/08/16 09:00:56;;;;;;;9.52;1.92;;;;;;;;;;5052535;28;20033;-77
2023/08/16 09:03:23;;;;;;;12.68;2.22;;;;;;;;;;5052444;28;20071;-73
2023/08/16 09:05:53;;;;;;;9.98;1.90;;;;;;;;;;5053429;28;20017;-72
2023/08/16 09:08:19;;;;;;;12.38;3.08;;;;;;;;;;5055459;28;20493;-74
2023/08/16 09:10:46;;;;;;;10.77;2.45;;;;;;;;;;5053607;28;20039;-74
2023/08/16 09:13:12;;;;;;;11.50;2.08;;;;;;;;;;5052488;28;20494;-73
2023/08/16 09:15:38;;;;;;;11.57;2.08;;;;;;;;;;5052487;28;20037;-72
2023/08/16 09:18:12;;;;;;;10.55;1.90;;;;;;;;;;5052263;28;20025;-72
2023/08/16 09:20:39;;;;;;;12.40;2.17;;;;;;;;;;5052133;28;20078;-74
2023/08/16 09:23:05;;;;;;;7.30;1.55;;;;;;;;;;5051841;28;20379;-72
2023/08/16 09:25:31;;;;;;;10.82;2.15;;;;;;;;;;5052037;28;20100;-73
2023/08/16 09:27:57;;;;;;;10.10;1.85;;;;;;;;;;5052134;28;20032;-73
2023/08/16 09:30:26;;;;;;;9.02;1.85;;;;;;;;;;5052077;28;20083;-74
2023/08/16 09:32:53;;;;;;;7.30;2.15;;;;;;;;;;5051855;28;20486;-73
2023/08/16 09:35:19;;;;;;;12.05;2.20;;;;;;;;;;5053295;28;20125;-73
2023/08/16 09:37:45;;;;;;;8.98;2.00;;;;;;;;;;5052875;28;20067;-74
2023/08/16 09:40:11;;;;;;;10.70;2.25;;;;;;;;;;5052992;28;20048;-74
2023/08/16 09:42:37;;;;;;;8.23;2.15;;;;;;;;;;5052889;28;20028;-73
2023/08/16 09:45:04;;;;;;;9.27;1.85;;;;;;;;;;5051866;28;20530;-74
2023/08/16 09:47:31;;;;;;;13.52;2.30;;;;;;;;;;5052359;28;20437;-75
2023/08/16 09:50:00;;;;;;;8.45;1.83;;;;;;;;;;5052364;28;20021;-73
2023/08/16 09:52:29;;;;;;;10.60;2.15;;;;;;;;;;5051833;28;20490;-74
2023/08/16 09:54:56;;;;;;;14.57;2.33;;;;;;;;;;5052117;28;20063;-73
2023/08/16 09:57:22;;;;;;;15.20;2.00;;;;;;;;;;5052206;28;20360;-73
2023/08/16 09:59:49;;;;;;;7.18;1.70;;;;;;;;;;5052084;28;20037;-74
2023/08/16 10:02:15;;;;;;;11.20;2.83;;;;;;;;;;5051402;28;20078;-73
2023/08/16 10:04:41;;;;;;;9.18;2.97;;;;;;;;;;5051811;28;20033;-74
2023/08/16 10:07:08;;;;;;;10.48;2.25;;;;;;;;;;5053878;28;20021;-73
2023/08/16 10:09:34;;;;;;;11.50;1.70;;;;;;;;;;5054344;28;20471;-74
2023/08/16 10:12:02;;;;;;;11.35;2.15;;;;;;;;;;5053913;28;20040;-72
2023/08/16 10:14:28;;;;;;;10.32;1.90;;;;;;;;;;5053147;28;20032;-73
2023/08/16 10:16:56;;;;;;;17.73;1.98;;;;;;;;;;5054836;28;20036;-73
2023/08/16 10:19:24;;;;;;;9.00;2.13;;;;;;;;;;5053243;28;20071;-74
2023/08/16 10:21:52;;;;;;;8.25;2.15;;;;;;;;;;5061493;28;20094;-73
2023/08/16 10:24:19;;;;;;;10.10;2.05;;;;;;;;;;5071096;28;20025;-73
2023/08/16 10:26:46;;;;;;;9.52;2.00;;;;;;;;;;5065172;28;20037;-72
2023/08/16 10:29:14;;;;;;;9.90;1.98;;;;;;;;;;5053887;28;20055;-74
2023/08/16 10:31:43;;;;;;;7.85;1.52;;;;;;;;;;5051852;28;20032;-73
2023/08/16 10:34:09;;;;;;;8.55;1.80;;;;;;;;;;5051380;28;20445;-73
2023/08/16 10:36:36;;;;;;;14.73;1.73;;;;;;;;;;5051872;28;20028;-74
2023/08/16 10:39:03;;;;;;;4.18;1.40;;;;;;;;;;5051859;28;20025;-73
2023/08/16 10:41:39;;;;;;;8.20;2.70;;;;;;;;;;5052430;28;20021;-74
2023/08/16 10:44:06;;;;;;;8.88;1.70;;;;;;;;;;5053966;28;20104;-73
2023/08/16 10:46:34;;;;;;;12.30;2.45;;;;;;;;;;5054398;28;20498;-73
2023/08/16 10:49:01;;;;;;;13.80;2.85;;;;;;;;;;5054800;28;20475;-77
2023/08/16 10:51:27;;;;;;;10.02;1.55;;;;;;;;;;5053925;28;20041;-75
2023/08/16 10:54:00;;;;;;;9.55;2.08;;;;;;;;;;5051788;28;20032;-73
2023/08/16 10:56:37;;;;;;;9.40;1.92;;;;;;;;;;5052060;28;20043;-74
2023/08/16 10:59:07;;;;;;;10.07;1.92;;;;;;;;;;5051911;28;20099;-74
2023/08/16 11:01:34;;;;;;;11.27;2.17;;;;;;;;;;5051803;28;20029;-73
2023/08/16 11:04:02;;;;;;;5.93;1.95;;;;;;;;;;5051031;28;20032;-73
2023/08/16 11:06:29;;;;;;;7.50;2.10;;;;;;;;;;5050986;28;20017;-73
2023/08/16 11:08:55;;;;;;;5.75;1.50;;;;;;;;;;5051102;28;20025;-73
2023/08/16 11:11:21;;;;;;;10.25;1.83;;;;;;;;;;5052478;28;20367;-74
2023/08/16 11:13:47;;;;;;;11.95;2.25;;;;;;;;;;5055525;28;20069;-72
2023/08/16 11:16:13;;;;;;;11.85;2.15;;;;;;;;;;5055229;28;20082;-73
2023/08/16 11:18:41;;;;;;;10.15;2.15;;;;;;;;;;5055095;28;20036;-77
2023/08/16 11:21:08;;;;;;;8.02;1.98;;;;;;;;;;5057154;28;20487;-72
2023/08/16 11:23:35;;;;;;;7.53;2.00;;;;;;;;;;5056856;28;20021;-73
2023/08/16 11:26:01;;;;;;;8.90;1.80;;;;;;;;;;5055842;28;20028;-73
2023/08/16 11:28:31;;;;;;;9.75;1.52;;;;;;;;;;5055238;28;20079;-74
2023/08/16 11:30:57;;;;;;;13.57;1.98;;;;;;;;;;5056649;28;20509;-74
2023/08/16 11:33:24;;;;;;;12.27;2.17;;;;;;;;;;5056478;28;20037;-75
2023/08/16 11:35:49;;;;;;;12.80;1.90;;;;;;;;;;5056623;28;20529;-74
2023/08/16 11:38:15;;;;;;;4.90;1.67;;;;;;;;;;5055351;28;20029;-74
2023/08/16 11:40:46;;;;;;;12.48;3.33;;;;;;;;;;5055406;28;20029;-73
2023/08/16 11:43:12;;;;;;;9.45;1.80;;;;;;;;;;5055484;28;20021;-74
2023/08/16 11:45:38;;;;;;;16.15;2.33;;;;;;;;;;5054369;28;20430;-73
2023/08/16 11:48:04;;;;;;;10.77;1.60;;;;;;;;;;5054363;28;20028;-75
2023/08/16 11:50:34;;;;;;;8.85;1.80;;;;;;;;;;5056288;28;20118;-73
2023/08/16 11:53:01;;;;;;;6.93;1.88;;;;;;;;;;5056139;28;20017;-73
2023/08/16 11:55:29;;;;;;;7.65;1.55;;;;;;;;;;5056082;28;20017;-74
2023/08/16 11:58:01;;;;;;;9.35;2.08;;;;;;;;;;5055228;28;20029;-74
2023/08/16 12:00:29;;;;;;;8.63;1.88;;;;;;;;;;5056643;28;20021;-73
2023/08/16 12:02:55;;;;;;;9.63;2.22;;;;;;;;;;5056804;28;20507;-74
2023/08/16 12:05:21;;;;;;;9.25;2.40;;;;;;;;;;5056762;28;20040;-72
2023/08/16 12:07:54;;;;;;;7.13;1.45;;;;;;;;;;5056403;28;20398;-74
2023/08/16 12:10:29;;;;;;;9.65;1.88;;;;;;;;;;5054655;28;20078;-73
2023/08/16 12:12:55;;;;;;;7.85;1.67;;;;;;;;;;5035160;28;20036;-77
2023/08/16 12:15:25;;;;;;;8.05;1.50;;;;;;;;;;5034209;28;20081;-74
2023/08/16 12:17:55;;;;;;;6.82;1.67;;;;;;;;;;5026204;28;20044;-74
2023/08/16 12:20:25;;;;;;;9.13;1.40;;;;;;;;;;5033594;28;20066;-73
2023/08/16 12:22:51;;;;;;;5.55;1.40;;;;;;;;;;5033256;28;20106;-74
2023/08/16 12:25:17;;;;;;;6.57;1.83;;;;;;;;;;5033656;28;20056;-74
2023/08/16 12:27:43;;;;;;;7.47;1.60;;;;;;;;;;5033617;28;20044;-74
2023/08/16 12:30:09;;;;;;;6.55;1.85;;;;;;;;;;5033730;28;20472;-73
2023/08/16 12:32:35;;;;;;;8.90;1.65;;;;;;;;;;5038794;28;20033;-73
2023/08/16 12:35:02;;;;;;;11.02;2.33;;;;;;;;;;5038905;28;20033;-74
2023/08/16 12:37:28;;;;;;;10.10;1.90;;;;;;;;;;5037562;28;20040;-75
2023/08/16 12:39:54;;;;;;;7.07;1.60;;;;;;;;;;5038470;28;20488;-75
2023/08/16 12:42:20;;;;;;;9.20;1.92;;;;;;;;;;5035009;28;20215;-74
2023/08/16 12:44:46;;;;;;;8.10;1.75;;;;;;;;;;5038093;28;20051;-74
2023/08/16 12:47:11;;;;;;;6.57;1.70;;;;;;;;;;5036514;28;20025;-75
2023/08/16 12:49:37;;;;;;;8.15;1.63;;;;;;;;;;5034266;28;20485;-74
2023/08/16 12:52:04;;;;;;;9.02;2.90;;;;;;;;;;5033618;28;20034;-76
2023/08/16 12:54:30;;;;;;;9.32;1.92;;;;;;;;;;5034798;28;20061;-78
2023/08/16 12:56:56;;;;;;;11.52;4.35;;;;;;;;;;5035683;28;20029;-76
2023/08/16 12:59:22;;;;;;;7.13;1.92;;;;;;;;;;5028515;28;20030;-74
2023/08/16 13:01:48;;;;;;;6.25;1.20;;;;;;;;;;5033531;28;20440;-73
2023/08/16 13:04:15;;;;;;;8.90;2.05;;;;;;;;;;5033985;28;20109;-74
2023/08/16 13:06:41;;;;;;;10.63;2.28;;;;;;;;;;5034181;28;20376;-73
2023/08/16 13:09:10;;;;;;;9.68;2.05;;;;;;;;;;5033766;28;20053;-75
2023/08/16 13:11:36;;;;;;;5.65;1.42;;;;;;;;;;5033524;28;20053;-74
2023/08/16 13:14:05;;;;;;;6.82;1.42;;;;;;;;;;5031061;28;20030;-74
2023/08/16 13:16:31;;;;;;;5.57;1.25;;;;;;;;;;5032906;28;20123;-73
2023/08/16 13:18:57;;;;;;;5.82;1.20;;;;;;;;;;5032534;28;20059;-75
2023/08/16 13:21:23;;;;;;;8.27;1.38;;;;;;;;;;5032802;28;20099;-73
2023/08/16 13:23:52;;;;;;;7.93;1.75;;;;;;;;;;5033098;28;20390;-73
2023/08/16 13:26:18;;;;;;;9.30;2.47;;;;;;;;;;5032324;28;20026;-74
2023/08/16 13:28:44;;;;;;;10.82;1.85;;;;;;;;;;5032246;28;20381;-73
2023/08/16 13:31:10;;;;;;;8.77;1.70;;;;;;;;;;5032084;28;20030;-73
2023/08/16 13:33:36;;;;;;;6.22;1.80;;;;;;;;;;5034875;28;20030;-74
2023/08/16 13:36:03;;;;;;;8.48;2.40;;;;;;;;;;5032451;28;20478;-73
2023/08/16 13:38:29;;;;;;;20.45;11.93;;;;;;;;;;5031567;28;20022;-74
2023/08/16 13:40:55;;;;;;;8.48;3.08;;;;;;;;;;5032612;28;20040;-73
2023/08/16 13:43:21;;;;;;;6.60;2.10;;;;;;;;;;5032937;28;20021;-73
2023/08/16 13:45:47;;;;;;;10.48;2.35;;;;;;;;;;5031900;28;20357;-77
2023/08/16 13:48:13;;;;;;;7.10;2.65;;;;;;;;;;5030954;28;20087;-76
2023/08/16 13:50:40;;;;;;;7.82;1.77;;;;;;;;;;5032338;28;20108;-75
2023/08/16 13:53:06;;;;;;;7.22;1.42;;;;;;;;;;5031322;28;20025;-73
2023/08/16 13:55:32;;;;;;;14.63;1.77;;;;;;;;;;5032667;28;20577;-75
2023/08/16 13:57:58;;;;;;;6.57;1.42;;;;;;;;;;5032436;28;20411;-72
2023/08/16 14:00:24;;;;;;;11.25;1.83;;;;;;;;;;5032026;28;20031;-74
2023/08/16 14:02:50;;;;;;;9.13;2.38;;;;;;;;;;5030842;28;20079;-75
2023/08/16 14:05:19;;;;;;;12.23;2.25;;;;;;;;;;5032087;28;20026;-73
2023/08/16 14:07:46;;;;;;;10.27;2.13;;;;;;;;;;5032453;28;20483;-75
2023/08/16 14:10:13;;;;;;;11.43;2.00;;;;;;;;;;5032199;28;20032;-76
2023/08/16 14:12:40;;;;;;;11.50;3.20;;;;;;;;;;5031377;28;20061;-74
2023/08/16 14:15:06;;;;;;;10.00;2.13;;;;;;;;;;5031012;28;20029;-73
2023/08/16 14:17:32;;;;;;;8.20;1.80;;;;;;;;;;5031545;28;20052;-73
2023/08/16 14:19:58;;;;;;;15.23;3.10;;;;;;;;;;5031269;28;20476;-74
2023/08/16 14:22:24;;;;;;;8.65;1.50;;;;;;;;;;5030497;28;20040;-73
2023/08/16 14:24:50;;;;;;;6.72;1.55;;;;;;;;;;5031209;28;20029;-73
2023/08/16 14:27:16;;;;;;;8.38;1.40;;;;;;;;;;5030966;28;20091;-73
2023/08/16 14:29:42;;;;;;;7.35;1.40;;;;;;;;;;5032240;28;20411;-74